Time;durP1;ratioP1;P1;durP2;ratioP2;P2;SDS_P1;SDS_P2;PMS_P1;PMS_P2;Temp;Humidity;BMP_temperature;BMP_pressure;BME280_temperature;BME280_humidity;BME280_pressure;Samples;Min_cycle;Max_cycle;Signal;HPM_P1;HPM_P2
2021/06/08 00:00:11;;;;;;;11.35;4.30;;;;;;;;;;5035757;28;20548;-91
2021/06/08 00:02:37;;;;;;;10.45;4.20;;;;;;;;;;5038651;28;20033;-91
2021/06/08 00:05:03;;;;;;;9.00;4.00;;;;;;;;;;5028357;28;20018;-92
2021/06/08 00:07:29;;;;;;;7.47;3.80;;;;;;;;;;5024897;28;20037;-91
2021/06/08 00:09:55;;;;;;;8.18;3.40;;;;;;;;;;5047784;28;20021;-91
2021/06/08 00:12:21;;;;;;;9.60;3.90;;;;;;;;;;5054315;28;20025;-92
2021/06/08 00:14:47;;;;;;;8.15;4.00;;;;;;;;;;5037951;28;20021;-91
2021/06/08 00:17:13;;;;;;;7.90;2.90;;;;;;;;;;5037090;28;20030;-92
2021/06/08 00:19:39;;;;;;;7.15;2.67;;;;;;;;;;5036476;28;20014;-91
2021/06/08 00:22:05;;;;;;;7.90;2.85;;;;;;;;;;5031600;28;20033;-92
2021/06/08 00:24:31;;;;;;;4.70;2.33;;;;;;;;;;5017417;28;20117;-91
2021/06/08 00:26:57;;;;;;;5.63;1.90;;;;;;;;;;5008846;28;20061;-90
2021/06/08 00:29:23;;;;;;;6.00;1.63;;;;;;;;;;5035747;28;20049;-90
2021/06/08 00:31:49;;;;;;;3.28;1.70;;;;;;;;;;5018747;28;20136;-91
2021/06/08 00:34:15;;;;;;;2.92;1.48;;;;;;;;;;5019547;28;20466;-91
2021/06/08 00:36:41;;;;;;;4.20;2.28;;;;;;;;;;5023073;28;20049;-91
2021/06/08 00:39:08;;;;;;;8.85;2.50;;;;;;;;;;5024267;28;20040;-91
2021/06/08 00:41:38;;;;;;;5.30;2.70;;;;;;;;;;5017284;28;20514;-91
2021/06/08 00:44:13;;;;;;;4.45;2.75;;;;;;;;;;5037346;28;20053;-92
2021/06/08 00:46:39;;;;;;;7.72;3.33;;;;;;;;;;5019290;28;20359;-92
2021/06/08 00:49:05;;;;;;;4.88;2.83;;;;;;;;;;5019404;28;20026;-92
2021/06/08 00:51:31;;;;;;;6.55;2.78;;;;;;;;;;5034604;28;20068;-92
2021/06/08 00:53:59;;;;;;;5.50;2.65;;;;;;;;;;5027757;28;20033;-92
2021/06/08 00:56:25;;;;;;;;;;;;;;;;;;5045372;28;20021;-87
2021/06/08 00:58:51;;;;;;;6.70;2.60;;;;;;;;;;5050888;28;19912;-92
2021/06/08 01:01:17;;;;;;;6.32;2.97;;;;;;;;;;5019473;28;20099;-92
2021/06/08 01:03:43;;;;;;;4.45;2.88;;;;;;;;;;5030628;28;20033;-92
2021/06/08 01:06:09;;;;;;;11.75;2.97;;;;;;;;;;5022697;28;20026;-91
2021/06/08 01:08:35;;;;;;;7.72;3.00;;;;;;;;;;5033519;28;20026;-90
2021/06/08 01:11:01;;;;;;;4.07;2.47;;;;;;;;;;5044607;28;20051;-91
2021/06/08 01:13:29;;;;;;;6.40;2.40;;;;;;;;;;5033185;28;20030;-91
2021/06/08 01:15:55;;;;;;;7.15;2.65;;;;;;;;;;5029847;28;20033;-91
2021/06/08 01:18:22;;;;;;;4.07;2.50;;;;;;;;;;5028992;28;20026;-91
2021/06/08 01:20:48;;;;;;;4.03;2.05;;;;;;;;;;5011623;28;20132;-90
2021/06/08 01:23:14;;;;;;;5.68;1.95;;;;;;;;;;5049282;28;20049;-91
2021/06/08 01:25:41;;;;;;;5.93;2.00;;;;;;;;;;5050151;28;20033;-90
2021/06/08 01:28:07;;;;;;;2.78;2.05;;;;;;;;;;5032513;28;20037;-91
2021/06/08 01:30:33;;;;;;;3.85;2.00;;;;;;;;;;5044294;28;20064;-91
2021/06/08 01:33:00;;;;;;;3.47;2.45;;;;;;;;;;5029548;28;20101;-91
2021/06/08 01:35:28;;;;;;;4.78;2.42;;;;;;;;;;5017799;28;20033;-91
2021/06/08 01:37:54;;;;;;;4.82;2.20;;;;;;;;;;5015145;28;20029;-91
2021/06/08 01:40:20;;;;;;;6.05;2.53;;;;;;;;;;5007944;28;20033;-91
2021/06/08 01:42:48;;;;;;;7.10;2.78;;;;;;;;;;4997200;28;20030;-91
2021/06/08 01:45:15;;;;;;;7.30;2.60;;;;;;;;;;4999381;28;20470;-90
2021/06/08 01:47:41;;;;;;;3.65;2.50;;;;;;;;;;4990076;28;20045;-91
2021/06/08 01:50:08;;;;;;;5.38;2.17;;;;;;;;;;4989086;28;20022;-90
2021/06/08 01:53:03;;;;;;;6.72;2.50;;;;;;;;;;4987181;28;20030;-91
2021/06/08 01:55:31;;;;;;;5.35;2.50;;;;;;;;;;4955981;28;20040;-91
2021/06/08 01:58:09;;;;;;;4.25;1.88;;;;;;;;;;4991773;28;20029;-90
2021/06/08 02:00:38;;;;;;;3.10;2.40;;;;;;;;;;5022279;28;20061;-91
2021/06/08 02:03:10;;;;;;;4.28;2.72;;;;;;;;;;5029953;28;20028;-91
2021/06/08 02:05:56;;;;;;;4.18;2.50;;;;;;;;;;5005249;28;20030;-91
2021/06/08 02:08:42;;;;;;;4.22;2.42;;;;;;;;;;5025023;28;20054;-90
2021/06/08 02:11:11;;;;;;;5.72;2.70;;;;;;;;;;5025568;28;20033;-90
2021/06/08 02:13:52;;;;;;;6.20;2.60;;;;;;;;;;5031389;28;20104;-92
2021/06/08 02:16:29;;;;;;;5.68;2.53;;;;;;;;;;5014090;28;20030;-92
2021/06/08 02:18:55;;;;;;;3.25;2.38;;;;;;;;;;5008271;28;20470;-91
2021/06/08 02:21:23;;;;;;;5.82;2.42;;;;;;;;;;5008160;28;20092;-91
2021/06/08 02:23:50;;;;;;;5.72;3.03;;;;;;;;;;4995620;28;20112;-91
2021/06/08 02:26:18;;;;;;;4.80;2.73;;;;;;;;;;5006828;28;20080;-91
2021/06/08 02:28:44;;;;;;;;;;;;;;;;;;4995186;28;20274;-91
2021/06/08 02:31:10;;;;;;;4.43;2.30;;;;;;;;;;5016199;28;19917;-91
2021/06/08 02:33:37;;;;;;;9.55;2.10;;;;;;;;;;5027844;28;20045;-91
2021/06/08 02:36:06;;;;;;;4.68;2.10;;;;;;;;;;5028234;28;20186;-91
2021/06/08 02:38:34;;;;;;;2.95;2.20;;;;;;;;;;5049397;28;20037;-91
2021/06/08 02:41:01;;;;;;;2.83;2.40;;;;;;;;;;5041410;28;20037;-91
2021/06/08 02:43:27;;;;;;;5.85;2.60;;;;;;;;;;5001009;28;20061;-91
2021/06/08 02:45:54;;;;;;;6.20;2.90;;;;;;;;;;5025331;28;20074;-91
2021/06/08 02:48:21;;;;;;;6.82;2.80;;;;;;;;;;5031923;28;20462;-91
2021/06/08 02:50:48;;;;;;;5.32;2.45;;;;;;;;;;5008009;28;20479;-91
2021/06/08 02:53:15;;;;;;;5.10;2.47;;;;;;;;;;5027344;28;20084;-91
2021/06/08 02:55:42;;;;;;;4.95;2.80;;;;;;;;;;5030785;28;20029;-91
2021/06/08 02:58:08;;;;;;;4.20;2.47;;;;;;;;;;5031111;28;20014;-91
2021/06/08 03:00:34;;;;;;;4.65;2.80;;;;;;;;;;5020364;28;20124;-91
2021/06/08 03:03:02;;;;;;;6.05;3.10;;;;;;;;;;5026364;28;20026;-91
2021/06/08 03:05:31;;;;;;;3.42;2.60;;;;;;;;;;5011305;28;20502;-92
2021/06/08 03:07:58;;;;;;;3.40;2.63;;;;;;;;;;5034130;28;20022;-91
2021/06/08 03:10:27;;;;;;;4.25;2.55;;;;;;;;;;5046515;28;20039;-91
2021/06/08 03:12:57;;;;;;;5.20;2.28;;;;;;;;;;5032199;28;20045;-91
2021/06/08 03:15:44;;;;;;;6.00;2.55;;;;;;;;;;5026733;28;20030;-91
2021/06/08 03:18:11;;;;;;;6.07;2.63;;;;;;;;;;5019792;28;20018;-91
2021/06/08 03:20:40;;;;;;;8.82;3.08;;;;;;;;;;5025823;28;20041;-91
2021/06/08 03:23:08;;;;;;;4.03;2.80;;;;;;;;;;5010603;28;20068;-92
2021/06/08 03:25:35;;;;;;;5.00;3.23;;;;;;;;;;5019974;28;20053;-91
2021/06/08 03:28:02;;;;;;;4.35;3.03;;;;;;;;;;5024488;28;20022;-91
2021/06/08 03:30:29;;;;;;;5.47;3.15;;;;;;;;;;5044275;28;20045;-91
2021/06/08 03:32:56;;;;;;;8.65;2.78;;;;;;;;;;5031516;28;20026;-91
2021/06/08 03:35:22;;;;;;;4.45;2.65;;;;;;;;;;5009828;28;20045;-91
2021/06/08 03:37:52;;;;;;;5.05;3.00;;;;;;;;;;5022404;28;20048;-92
2021/06/08 03:40:18;;;;;;;4.40;2.75;;;;;;;;;;5016073;28;20136;-89
2021/06/08 03:42:45;;;;;;;3.95;2.42;;;;;;;;;;5028212;28;20486;-90
2021/06/08 03:45:16;;;;;;;3.33;2.45;;;;;;;;;;5013880;28;20025;-91
2021/06/08 03:47:43;;;;;;;4.68;2.55;;;;;;;;;;5043720;28;20029;-88
2021/06/08 03:50:11;;;;;;;4.93;2.53;;;;;;;;;;5011049;28;20021;-88
2021/06/08 03:52:38;;;;;;;3.95;2.65;;;;;;;;;;5036112;28;20022;-88
2021/06/08 03:55:05;;;;;;;7.72;2.67;;;;;;;;;;5033489;28;20482;-88
2021/06/08 03:57:33;;;;;;;6.13;2.47;;;;;;;;;;5018748;28;20025;-88
2021/06/08 04:00:00;;;;;;;5.18;2.25;;;;;;;;;;5023745;28;20041;-88
2021/06/08 04:02:26;;;;;;;3.95;2.35;;;;;;;;;;5051763;28;20030;-88
2021/06/08 04:04:52;;;;;;;5.93;2.13;;;;;;;;;;5051309;28;20056;-88
2021/06/08 04:07:20;;;;;;;4.13;2.20;;;;;;;;;;5051645;28;20022;-88
2021/06/08 04:09:46;;;;;;;4.70;1.90;;;;;;;;;;5039784;28;20037;-88
2021/06/08 04:12:13;;;;;;;3.72;2.05;;;;;;;;;;5043720;28;20048;-87
2021/06/08 04:14:39;;;;;;;2.70;1.75;;;;;;;;;;5029263;28;20092;-88
2021/06/08 04:17:06;;;;;;;2.63;2.00;;;;;;;;;;5051190;28;20032;-88
2021/06/08 04:19:32;;;;;;;4.10;2.63;;;;;;;;;;5051287;28;20038;-87
2021/06/08 04:21:58;;;;;;;5.45;1.92;;;;;;;;;;5028865;28;20030;-88
2021/06/08 04:24:24;;;;;;;8.70;2.35;;;;;;;;;;5043702;28;20030;-87
2021/06/08 04:26:50;;;;;;;4.93;2.10;;;;;;;;;;5022286;28;20022;-88
2021/06/08 04:29:16;;;;;;;4.95;2.00;;;;;;;;;;5004839;28;20494;-88
2021/06/08 04:31:42;;;;;;;2.38;1.90;;;;;;;;;;5045936;28;20052;-88
2021/06/08 04:34:08;;;;;;;3.10;1.73;;;;;;;;;;5044306;28;20025;-88
2021/06/08 04:36:34;;;;;;;3.42;1.92;;;;;;;;;;5040992;28;20418;-88
2021/06/08 04:39:00;;;;;;;5.15;2.70;;;;;;;;;;5032351;28;20029;-87
2021/06/08 04:41:27;;;;;;;3.90;2.10;;;;;;;;;;5040067;28;20033;-88
2021/06/08 04:43:53;;;;;;;4.40;2.30;;;;;;;;;;5042391;28;20128;-88
2021/06/08 04:46:19;;;;;;;4.28;2.40;;;;;;;;;;5035516;28;20498;-89
2021/06/08 04:48:45;;;;;;;2.25;1.98;;;;;;;;;;5038731;28;20105;-88
2021/06/08 04:51:12;;;;;;;4.30;2.40;;;;;;;;;;5019827;28;20033;-89
2021/06/08 04:53:38;;;;;;;4.57;2.42;;;;;;;;;;5023339;28;20025;-87
2021/06/08 04:56:05;;;;;;;5.30;2.30;;;;;;;;;;5015174;28;20409;-89
2021/06/08 04:58:32;;;;;;;3.13;2.10;;;;;;;;;;5032231;28;20018;-90
2021/06/08 05:01:10;;;;;;;2.83;2.20;;;;;;;;;;5020636;28;20037;-89
2021/06/08 05:03:42;;;;;;;4.82;2.22;;;;;;;;;;5022545;28;20029;-89
2021/06/08 05:06:11;;;;;;;4.72;2.40;;;;;;;;;;5035095;28;20029;-87
2021/06/08 05:08:58;;;;;;;3.47;2.05;;;;;;;;;;5011921;28;20030;-89
2021/06/08 05:11:30;;;;;;;4.35;2.13;;;;;;;;;;5020878;28;20030;-91
2021/06/08 05:13:57;;;;;;;2.60;1.90;;;;;;;;;;5014371;28;20462;-89
2021/06/08 05:16:27;;;;;;;2.53;1.88;;;;;;;;;;5026329;28;20044;-90
2021/06/08 05:18:53;;;;;;;4.28;2.40;;;;;;;;;;5023929;28;20136;-90
2021/06/08 05:21:20;;;;;;;5.65;2.25;;;;;;;;;;5024203;28;20116;-88
2021/06/08 05:23:47;;;;;;;2.67;1.77;;;;;;;;;;5032862;28;20036;-87
2021/06/08 05:26:13;;;;;;;2.97;1.80;;;;;;;;;;5041499;28;20025;-90
2021/06/08 05:28:40;;;;;;;2.75;2.00;;;;;;;;;;5023361;28;20040;-89
2021/06/08 05:31:06;;;;;;;3.17;1.95;;;;;;;;;;5042805;28;20067;-89
2021/06/08 05:33:33;;;;;;;4.05;2.05;;;;;;;;;;5049966;28;20045;-89
2021/06/08 05:35:59;;;;;;;5.18;2.30;;;;;;;;;;5032748;28;20061;-89
2021/06/08 05:38:29;;;;;;;2.50;1.90;;;;;;;;;;5025846;28;20022;-89
2021/06/08 05:40:55;;;;;;;4.45;2.13;;;;;;;;;;5040430;28;20033;-89
2021/06/08 05:43:21;;;;;;;3.05;1.58;;;;;;;;;;5022230;28;20061;-88
2021/06/08 05:45:49;;;;;;;5.53;2.08;;;;;;;;;;5023734;28;20025;-89
2021/06/08 05:48:15;;;;;;;7.70;2.05;;;;;;;;;;5028664;28;20161;-88
2021/06/08 05:50:41;;;;;;;4.07;1.80;;;;;;;;;;5043939;28;20031;-89
2021/06/08 05:53:08;;;;;;;2.33;1.60;;;;;;;;;;5019487;28;20041;-88
2021/06/08 05:55:34;;;;;;;3.72;1.60;;;;;;;;;;5032032;28;20108;-89
2021/06/08 05:58:00;;;;;;;5.43;1.80;;;;;;;;;;5050169;28;20041;-89
2021/06/08 06:00:27;;;;;;;3.10;1.92;;;;;;;;;;5049373;28;20125;-88
2021/06/08 06:02:54;;;;;;;7.57;1.90;;;;;;;;;;5032519;28;20097;-86
2021/06/08 06:05:20;;;;;;;2.85;1.50;;;;;;;;;;5050578;28;20111;-88
2021/06/08 06:07:46;;;;;;;4.10;1.92;;;;;;;;;;5027489;28;20475;-89
2021/06/08 06:10:12;;;;;;;1.90;1.50;;;;;;;;;;5019348;28;20041;-87
2021/06/08 06:12:39;;;;;;;2.88;1.50;;;;;;;;;;5044935;28;20033;-86
2021/06/08 06:15:09;;;;;;;2.75;1.50;;;;;;;;;;5013544;28;20036;-87
2021/06/08 06:17:40;;;;;;;2.58;1.80;;;;;;;;;;5030004;28;20026;-84
2021/06/08 06:20:14;;;;;;;5.22;1.80;;;;;;;;;;5017168;28;20030;-86
2021/06/08 06:22:40;;;;;;;3.22;1.48;;;;;;;;;;5032335;28;20041;-87
2021/06/08 06:25:08;;;;;;;2.65;1.40;;;;;;;;;;5016049;28;20022;-87
2021/06/08 06:27:39;;;;;;;6.00;1.20;;;;;;;;;;5017810;28;20029;-87
2021/06/08 06:30:06;;;;;;;1.73;1.13;;;;;;;;;;5042026;28;20077;-87
2021/06/08 06:32:33;;;;;;;2.72;1.40;;;;;;;;;;5019884;28;20033;-87
2021/06/08 06:34:59;;;;;;;2.70;1.40;;;;;;;;;;5032087;28;20029;-87
2021/06/08 06:37:25;;;;;;;2.97;1.20;;;;;;;;;;5025740;28;20471;-86
2021/06/08 06:39:53;;;;;;;2.90;1.25;;;;;;;;;;5046234;28;20044;-87
2021/06/08 06:42:20;;;;;;;6.60;1.60;;;;;;;;;;5046996;28;20100;-87
2021/06/08 06:44:46;;;;;;;4.95;1.60;;;;;;;;;;5018432;28;20025;-87
2021/06/08 06:47:15;;;;;;;7.70;1.58;;;;;;;;;;5015241;28;20229;-86
2021/06/08 06:49:41;;;;;;;2.22;1.45;;;;;;;;;;5041491;28;20025;-86
2021/06/08 06:52:08;;;;;;;2.75;1.20;;;;;;;;;;5039868;28;20030;-87
2021/06/08 06:54:34;;;;;;;4.63;1.40;;;;;;;;;;5008656;28;20040;-87
2021/06/08 06:57:01;;;;;;;3.45;1.25;;;;;;;;;;5036313;28;20100;-87
2021/06/08 06:59:27;;;;;;;4.38;1.40;;;;;;;;;;5030052;28;20056;-87
2021/06/08 07:01:53;;;;;;;6.53;1.38;;;;;;;;;;5035522;28;20034;-87
2021/06/08 07:04:22;;;;;;;4.88;1.60;;;;;;;;;;5026287;28;20022;-87
2021/06/08 07:06:48;;;;;;;2.72;1.20;;;;;;;;;;5024801;28;20063;-86
2021/06/08 07:09:14;;;;;;;2.55;1.50;;;;;;;;;;5036322;28;20025;-86
2021/06/08 07:11:40;;;;;;;1.73;1.15;;;;;;;;;;5006344;28;20026;-87
2021/06/08 07:14:06;;;;;;;3.30;1.40;;;;;;;;;;5044082;28;20081;-87
2021/06/08 07:16:32;;;;;;;1.90;1.17;;;;;;;;;;5018977;28;20021;-87
2021/06/08 07:18:59;;;;;;;3.08;1.60;;;;;;;;;;5031654;28;20021;-87
2021/06/08 07:21:25;;;;;;;2.95;1.30;;;;;;;;;;5034549;28;20053;-86
2021/06/08 07:23:53;;;;;;;4.93;1.40;;;;;;;;;;5046650;28;20036;-87
2021/06/08 07:26:19;;;;;;;5.88;1.42;;;;;;;;;;5025998;28;20042;-87
2021/06/08 07:28:49;;;;;;;6.20;1.27;;;;;;;;;;5028573;28;20037;-87
2021/06/08 07:31:21;;;;;;;2.83;1.17;;;;;;;;;;5035909;28;20046;-87
2021/06/08 07:33:54;;;;;;;2.72;1.60;;;;;;;;;;5030698;28;20026;-87
2021/06/08 07:36:28;;;;;;;3.90;1.30;;;;;;;;;;5035163;28;20040;-87
2021/06/08 07:39:02;;;;;;;2.60;1.40;;;;;;;;;;5021387;28;20024;-87
2021/06/08 07:41:34;;;;;;;3.15;1.30;;;;;;;;;;5037791;28;20037;-87
2021/06/08 07:44:02;;;;;;;3.28;1.20;;;;;;;;;;5038504;28;20352;-87
2021/06/08 07:46:29;;;;;;;4.47;1.50;;;;;;;;;;5031606;28;20030;-87
2021/06/08 07:48:57;;;;;;;2.80;1.38;;;;;;;;;;5020074;28;20021;-85
2021/06/08 07:51:23;;;;;;;6.13;1.40;;;;;;;;;;5025163;28;20114;-87
2021/06/08 07:53:51;;;;;;;6.65;1.38;;;;;;;;;;5039208;28;20080;-87
2021/06/08 07:56:17;;;;;;;2.35;1.40;;;;;;;;;;5048240;28;20026;-87
2021/06/08 07:58:43;;;;;;;2.88;1.23;;;;;;;;;;5033145;28;20029;-87
2021/06/08 08:01:10;;;;;;;5.80;1.50;;;;;;;;;;5036512;28;20068;-87
2021/06/08 08:03:37;;;;;;;2.70;1.33;;;;;;;;;;5033755;28;20014;-87
2021/06/08 08:06:07;;;;;;;3.45;1.30;;;;;;;;;;5016949;28;20410;-86
2021/06/08 08:08:34;;;;;;;1.95;1.40;;;;;;;;;;5031733;28;20021;-87
2021/06/08 08:11:01;;;;;;;4.55;1.48;;;;;;;;;;5044244;28;20021;-87
2021/06/08 08:13:30;;;;;;;2.95;1.50;;;;;;;;;;5036793;28;20025;-87
2021/06/08 08:15:57;;;;;;;4.53;1.60;;;;;;;;;;5046666;28;20030;-86
2021/06/08 08:18:23;;;;;;;7.30;1.65;;;;;;;;;;5022274;28;20025;-87
2021/06/08 08:20:52;;;;;;;4.93;1.40;;;;;;;;;;5027195;28;20034;-87
2021/06/08 08:23:18;;;;;;;2.50;1.33;;;;;;;;;;5042422;28;20017;-87
2021/06/08 08:25:44;;;;;;;3.58;1.50;;;;;;;;;;5027541;28;20260;-86
2021/06/08 08:28:11;;;;;;;3.40;1.42;;;;;;;;;;5025737;28;20471;-87
2021/06/08 08:30:38;;;;;;;2.05;1.23;;;;;;;;;;5019197;28;20150;-87
2021/06/08 08:33:04;;;;;;;3.28;1.63;;;;;;;;;;5043195;28;20021;-89
2021/06/08 08:35:33;;;;;;;2.17;1.33;;;;;;;;;;5037920;28;20096;-89
2021/06/08 08:37:59;;;;;;;3.92;1.30;;;;;;;;;;5036425;28;20018;-86
2021/06/08 08:40:26;;;;;;;5.47;1.60;;;;;;;;;;5027995;28;20041;-89
2021/06/08 08:42:52;;;;;;;6.63;1.58;;;;;;;;;;5016349;28;20022;-87
2021/06/08 08:45:18;;;;;;;4.13;1.20;;;;;;;;;;5016557;28;20041;-87
2021/06/08 08:47:45;;;;;;;2.80;1.27;;;;;;;;;;5024289;28;20025;-87
2021/06/08 08:50:19;;;;;;;2.85;1.30;;;;;;;;;;5038363;28;20025;-87
2021/06/08 08:52:55;;;;;;;1.38;1.10;;;;;;;;;;5015126;28;20034;-87
2021/06/08 08:55:23;;;;;;;4.13;1.10;;;;;;;;;;5011311;28;20052;-87
2021/06/08 08:57:49;;;;;;;6.20;1.02;;;;;;;;;;5033057;28;20018;-87
2021/06/08 09:00:15;;;;;;;3.80;1.70;;;;;;;;;;5029075;28;20053;-86
2021/06/08 09:02:43;;;;;;;1.85;1.10;;;;;;;;;;5020237;28;20060;-87
2021/06/08 09:05:10;;;;;;;2.40;1.17;;;;;;;;;;5049123;28;20052;-90
2021/06/08 09:07:36;;;;;;;1.87;1.10;;;;;;;;;;5042517;28;20056;-89
2021/06/08 09:10:03;;;;;;;2.10;1.00;;;;;;;;;;5028846;28;20029;-89
2021/06/08 09:12:29;;;;;;;1.52;1.05;;;;;;;;;;5021562;28;20037;-91
2021/06/08 09:14:55;;;;;;;2.20;1.00;;;;;;;;;;5041781;28;20020;-88
2021/06/08 09:17:21;;;;;;;2.95;1.30;;;;;;;;;;5038907;28;20030;-91
2021/06/08 09:19:48;;;;;;;3.15;1.17;;;;;;;;;;5047258;28;20025;-89
2021/06/08 09:22:15;;;;;;;3.80;1.20;;;;;;;;;;5037118;28;20085;-91
2021/06/08 09:24:44;;;;;;;4.75;1.30;;;;;;;;;;5038136;28;20017;-88
2021/06/08 09:27:12;;;;;;;4.57;1.27;;;;;;;;;;5028295;28;20021;-88
2021/06/08 09:29:38;;;;;;;2.28;1.20;;;;;;;;;;5024936;28;20022;-87
2021/06/08 09:32:24;;;;;;;2.53;1.13;;;;;;;;;;5004725;28;20380;-88
2021/06/08 09:34:51;;;;;;;1.38;1.00;;;;;;;;;;5033579;28;20479;-89
2021/06/08 09:37:29;;;;;;;4.20;1.20;;;;;;;;;;5037241;28;20025;-87
2021/06/08 09:39:55;;;;;;;3.47;1.30;;;;;;;;;;5002847;28;20037;-87
2021/06/08 09:42:28;;;;;;;1.95;0.90;;;;;;;;;;5019235;28;20465;-86
2021/06/08 09:44:54;;;;;;;1.08;0.93;;;;;;;;;;5008246;28;20116;-87
2021/06/08 09:47:27;;;;;;;6.30;1.13;;;;;;;;;;5035847;28;20025;-88
2021/06/08 09:49:53;;;;;;;1.95;1.10;;;;;;;;;;5013348;28;20029;-88
2021/06/08 09:52:20;;;;;;;2.70;1.00;;;;;;;;;;5035732;28;20045;-87
2021/06/08 09:54:50;;;;;;;5.93;1.00;;;;;;;;;;5008838;28;20022;-88
2021/06/08 09:57:16;;;;;;;1.90;0.93;;;;;;;;;;5009650;28;20033;-87
2021/06/08 09:59:43;;;;;;;2.65;0.90;;;;;;;;;;5045319;28;20480;-86
2021/06/08 10:02:24;;;;;;;1.77;0.80;;;;;;;;;;5039886;28;20112;-87
2021/06/08 10:04:51;;;;;;;1.58;0.80;;;;;;;;;;5022396;28;20040;-87
2021/06/08 10:07:27;;;;;;;3.35;0.98;;;;;;;;;;5019700;28;20037;-87
2021/06/08 10:10:07;;;;;;;3.88;1.52;;;;;;;;;;5024310;28;20025;-87
2021/06/08 10:12:32;;;;;;;2.35;1.00;;;;;;;;;;5014364;28;20496;-87
2021/06/08 10:15:06;;;;;;;3.42;0.90;;;;;;;;;;5020791;28;20021;-90
2021/06/08 10:17:32;;;;;;;3.72;1.10;;;;;;;;;;5023033;28;20026;-88
2021/06/08 10:20:16;;;;;;;1.92;1.05;;;;;;;;;;5037354;28;20120;-87
2021/06/08 10:22:42;;;;;;;1.40;0.90;;;;;;;;;;5039110;28;20451;-89
2021/06/08 10:25:08;;;;;;;1.98;0.80;;;;;;;;;;5025418;28;20025;-87
2021/06/08 10:27:34;;;;;;;2.15;0.90;;;;;;;;;;5018214;28;20021;-89
2021/06/08 10:30:00;;;;;;;1.27;0.93;;;;;;;;;;4998942;28;20037;-89
2021/06/08 10:32:27;;;;;;;2.22;0.90;;;;;;;;;;5020333;28;20033;-87
2021/06/08 10:34:53;;;;;;;0.85;0.80;;;;;;;;;;5046313;28;20022;-87
2021/06/08 10:37:19;;;;;;;2.58;1.00;;;;;;;;;;5008746;28;20071;-87
2021/06/08 10:39:45;;;;;;;1.85;0.90;;;;;;;;;;5037201;28;20017;-87
2021/06/08 10:42:11;;;;;;;1.10;0.80;;;;;;;;;;5037036;28;20029;-85
2021/06/08 10:44:37;;;;;;;1.95;0.80;;;;;;;;;;5012493;28;20446;-87
2021/06/08 10:47:20;;;;;;;0.93;0.70;;;;;;;;;;5033095;28;20021;-89
2021/06/08 10:49:46;;;;;;;1.70;0.80;;;;;;;;;;5014138;28;20045;-87
2021/06/08 10:52:14;;;;;;;1.05;0.70;;;;;;;;;;5029798;28;20044;-88
2021/06/08 10:54:42;;;;;;;2.15;0.98;;;;;;;;;;5025155;28;20404;-89
2021/06/08 10:57:15;;;;;;;3.70;1.00;;;;;;;;;;5019022;28;20052;-89
2021/06/08 10:59:45;;;;;;;2.42;0.80;;;;;;;;;;5019152;28;20032;-89
2021/06/08 11:02:12;;;;;;;4.88;1.00;;;;;;;;;;5035217;28;20033;-87
2021/06/08 11:04:55;;;;;;;1.77;0.85;;;;;;;;;;5013765;28;20034;-89
2021/06/08 11:07:40;;;;;;;6.20;1.10;;;;;;;;;;5022547;28;20108;-89
2021/06/08 11:10:25;;;;;;;2.00;1.08;;;;;;;;;;5024425;28;20409;-89
2021/06/08 11:12:51;;;;;;;1.73;0.88;;;;;;;;;;5019705;28;20025;-89
2021/06/08 11:15:21;;;;;;;1.45;0.90;;;;;;;;;;5033778;28;20026;-86
2021/06/08 11:17:47;;;;;;;2.50;1.00;;;;;;;;;;5029729;28;20029;-87
2021/06/08 11:20:13;;;;;;;4.30;0.82;;;;;;;;;;5023405;28;20060;-87
2021/06/08 11:22:42;;;;;;;4.60;1.83;;;;;;;;;;5032276;28;20501;-87
2021/06/08 11:25:28;;;;;;;4.70;1.00;;;;;;;;;;5023486;28;20029;-89
2021/06/08 11:27:58;;;;;;;2.08;0.82;;;;;;;;;;5048660;28;20089;-87
2021/06/08 11:30:27;;;;;;;3.50;0.98;;;;;;;;;;5028848;28;20095;-89
2021/06/08 11:32:53;;;;;;;2.97;0.80;;;;;;;;;;5035460;28;20037;-88
2021/06/08 11:35:23;;;;;;;2.45;1.00;;;;;;;;;;5041317;28;20025;-86
2021/06/08 11:37:49;;;;;;;3.72;1.13;;;;;;;;;;5041540;28;20022;-88
2021/06/08 11:40:33;;;;;;;2.95;0.90;;;;;;;;;;5025308;28;20067;-86
2021/06/08 11:43:00;;;;;;;4.05;1.10;;;;;;;;;;5016752;28;20058;-86
2021/06/08 11:45:28;;;;;;;2.87;1.00;;;;;;;;;;5043919;28;20049;-88
2021/06/08 11:47:54;;;;;;;4.25;1.10;;;;;;;;;;5008054;28;20275;-88
2021/06/08 11:50:41;;;;;;;1.27;0.95;;;;;;;;;;5026018;28;20354;-89
2021/06/08 11:53:11;;;;;;;4.00;1.10;;;;;;;;;;5036612;28;20118;-88
2021/06/08 11:55:37;;;;;;;2.55;1.00;;;;;;;;;;5054521;28;20024;-86
2021/06/08 11:58:04;;;;;;;1.67;0.90;;;;;;;;;;5034604;28;20022;-89
2021/06/08 12:00:43;;;;;;;3.08;0.93;;;;;;;;;;5024262;28;20455;-89
2021/06/08 12:03:26;;;;;;;2.58;1.00;;;;;;;;;;5018220;28;20022;-88
2021/06/08 12:05:52;;;;;;;2.75;0.90;;;;;;;;;;5044166;28;20060;-86
2021/06/08 12:08:25;;;;;;;2.85;0.90;;;;;;;;;;5034970;28;20073;-87
2021/06/08 12:10:53;;;;;;;7.38;1.20;;;;;;;;;;5016699;28;20032;-87
2021/06/08 12:13:27;;;;;;;4.32;0.88;;;;;;;;;;5047082;28;20018;-85
2021/06/08 12:15:54;;;;;;;2.10;1.00;;;;;;;;;;5027146;28;20025;-86
2021/06/08 12:18:25;;;;;;;3.77;1.10;;;;;;;;;;5037364;28;20041;-87
2021/06/08 12:20:52;;;;;;;3.05;1.00;;;;;;;;;;5053240;28;20049;-86
2021/06/08 12:23:26;;;;;;;4.60;1.60;;;;;;;;;;5041100;28;20033;-88
2021/06/08 12:25:52;;;;;;;6.82;1.60;;;;;;;;;;5043164;28;20117;-88
2021/06/08 12:28:18;;;;;;;9.55;2.00;;;;;;;;;;5041153;28;20025;-87
2021/06/08 12:30:44;;;;;;;6.47;1.67;;;;;;;;;;5037449;28;20112;-87
2021/06/08 12:33:10;;;;;;;8.32;1.60;;;;;;;;;;5047143;28;20037;-87
2021/06/08 12:35:41;;;;;;;2.28;1.45;;;;;;;;;;5051073;28;20037;-87
2021/06/08 12:38:14;;;;;;;6.32;1.63;;;;;;;;;;5026508;28;20072;-87
2021/06/08 12:40:40;;;;;;;2.85;1.30;;;;;;;;;;5025817;28;20141;-88
2021/06/08 12:43:06;;;;;;;2.30;1.40;;;;;;;;;;5021524;28;20049;-85
2021/06/08 12:45:33;;;;;;;4.15;1.30;;;;;;;;;;5023001;28;20037;-87
2021/06/08 12:47:59;;;;;;;5.63;1.50;;;;;;;;;;5021128;28;20010;-87
2021/06/08 12:50:43;;;;;;;2.70;1.27;;;;;;;;;;5029679;28;20021;-88
2021/06/08 12:53:09;;;;;;;1.63;1.10;;;;;;;;;;5015894;28;20112;-87
2021/06/08 12:55:35;;;;;;;5.88;1.52;;;;;;;;;;5044845;28;20030;-88
2021/06/08 12:58:04;;;;;;;3.53;1.48;;;;;;;;;;5019777;28;20026;-87
2021/06/08 13:00:32;;;;;;;3.47;1.50;;;;;;;;;;4998059;28;20029;-87
2021/06/08 13:03:02;;;;;;;3.97;1.35;;;;;;;;;;5005874;28;20022;-87
2021/06/08 13:05:29;;;;;;;4.38;1.70;;;;;;;;;;5014066;28;20022;-87
2021/06/08 13:07:58;;;;;;;3.22;1.60;;;;;;;;;;5038659;28;20029;-88
2021/06/08 13:10:31;;;;;;;2.00;1.55;;;;;;;;;;4996009;28;20029;-87
2021/06/08 13:12:57;;;;;;;3.95;1.55;;;;;;;;;;5030618;28;20116;-87
2021/06/08 13:15:46;;;;;;;1.90;1.55;;;;;;;;;;5013256;28;20021;-86
2021/06/08 13:18:12;;;;;;;1.58;1.40;;;;;;;;;;5011049;28;20037;-88
2021/06/08 13:20:45;;;;;;;3.05;1.30;;;;;;;;;;5042661;28;20036;-87
2021/06/08 13:23:22;;;;;;;1.63;1.52;;;;;;;;;;5050586;28;20080;-86
2021/06/08 13:26:05;;;;;;;4.93;1.60;;;;;;;;;;5027250;28;20034;-87
2021/06/08 13:28:32;;;;;;;2.25;1.38;;;;;;;;;;4953381;28;20278;-87
2021/06/08 13:31:09;;;;;;;3.25;1.25;;;;;;;;;;5030340;28;20056;-87
2021/06/08 13:33:37;;;;;;;3.47;1.27;;;;;;;;;;5039201;28;20033;-87
2021/06/08 13:36:03;;;;;;;3.95;1.33;;;;;;;;;;5031834;28;20021;-87
2021/06/08 13:38:30;;;;;;;2.38;1.50;;;;;;;;;;5027406;28;20025;-87
2021/06/08 13:40:58;;;;;;;2.90;1.23;;;;;;;;;;4982544;28;20042;-87
2021/06/08 13:43:24;;;;;;;1.88;1.52;;;;;;;;;;4998320;28;20026;-87
2021/06/08 13:45:51;;;;;;;2.75;1.40;;;;;;;;;;5024438;28;20376;-87
2021/06/08 13:48:23;;;;;;;4.13;1.60;;;;;;;;;;5047963;28;20018;-87
2021/06/08 13:51:07;;;;;;;3.35;1.80;;;;;;;;;;5037611;28;20025;-87
2021/06/08 13:53:33;;;;;;;2.63;1.60;;;;;;;;;;5040338;28;20029;-87
2021/06/08 13:56:12;;;;;;;2.88;1.50;;;;;;;;;;5035023;28;20466;-87
2021/06/08 14:01:27;;;;;;;2.90;1.67;;;;;;;;;;5049495;28;20061;-86
2021/06/08 14:04:09;;;;;;;1.52;1.20;;;;;;;;;;5007708;28;20453;-86
2021/06/08 14:06:48;;;;;;;3.92;1.73;;;;;;;;;;5023253;28;20096;-85
2021/06/08 14:09:16;;;;;;;1.67;0.90;;;;;;;;;;5038457;28;20438;-85
2021/06/08 14:11:47;;;;;;;3.78;1.23;;;;;;;;;;5022529;28;20026;-85
2021/06/08 14:14:13;;;;;;;3.47;1.48;;;;;;;;;;5027147;28;20018;-85
2021/06/08 14:16:41;;;;;;;2.20;1.25;;;;;;;;;;5023194;28;20481;-85
2021/06/08 14:19:07;;;;;;;4.72;1.52;;;;;;;;;;4983167;28;20025;-85
2021/06/08 14:21:33;;;;;;;2.78;1.25;;;;;;;;;;4995358;28;20167;-85
2021/06/08 14:24:00;;;;;;;4.07;1.30;;;;;;;;;;5037205;28;20038;-84
2021/06/08 14:26:31;;;;;;;5.57;1.50;;;;;;;;;;5013430;28;20036;-89
2021/06/08 14:28:58;;;;;;;4.65;1.38;;;;;;;;;;5035729;28;20018;-85
2021/06/08 14:31:25;;;;;;;2.73;1.27;;;;;;;;;;5046564;28;20052;-85
2021/06/08 14:33:51;;;;;;;3.70;1.65;;;;;;;;;;5029901;28;20080;-85
2021/06/08 14:36:17;;;;;;;4.05;1.83;;;;;;;;;;5028164;28;20027;-86
2021/06/08 14:38:45;;;;;;;5.50;2.03;;;;;;;;;;4992352;28;20034;-89
2021/06/08 14:41:11;;;;;;;5.75;1.60;;;;;;;;;;4987141;28;20145;-86
2021/06/08 14:43:37;;;;;;;4.75;1.92;;;;;;;;;;5019854;28;20026;-86
2021/06/08 14:46:04;;;;;;;2.90;1.63;;;;;;;;;;5038096;28;20029;-85
2021/06/08 14:48:30;;;;;;;5.53;2.28;;;;;;;;;;5012081;28;20017;-86
2021/06/08 14:50:56;;;;;;;8.45;2.10;;;;;;;;;;5039830;28;20105;-86
2021/06/08 14:53:22;;;;;;;4.85;2.30;;;;;;;;;;5036631;28;20018;-86